CW5272 Weather Reports


Display with metric or nautical units.
time (UTC)temp
F
wind
direction
speed
MPH
gust
MPH
rain 1hr
in
rain 24hr
in
rain mn
in
humidity
%
barometer
mb
20180219140307 36 246 8.0 10.0 0.00 0.02 0.00 86 1013.6
20180219134307 35 273 5.0 17.0 0.00 0.02 0.00 87 1013.5
20180219132307 36 284 1.0 17.0 0.00 0.02 0.00 86 1013.7
20180219131307 36 288 1.0 10.0 0.00 0.02 0.00 87 1013.6
20180219130307 36 286 10.0 10.0 0.00 0.02 0.00 87 1013.6
20180219125307 35 326 3.0 13.0 0.00 0.02 0.00 88 1013.9
20180219122307 35 299 11.0 21.0 0.00 0.02 0.00 89 1014.0
20180219113307 35 307 0.0 12.0 0.00 0.02 0.00 88 1013.9
20180219105307 36 323 3.0 10.0 0.00 0.02 0.00 85 1014.0
20180219104307 36 264 6.0 10.0 0.00 0.02 0.00 86 1014.0
20180219103307 36 305 8.0 10.0 0.00 0.02 0.00 86 1014.0
20180219102307 36 285 0.0 15.0 0.00 0.02 0.00 87 1014.2
20180219095307 36 252 3.0 12.0 0.00 0.02 0.00 89 1014.2
20180219093306 36 281 0.0 6.0 0.00 0.02 0.00 90 1014.1
20180219090307 36 292 11.0 16.0 0.00 0.02 0.00 90 1013.6
20180219085306 36 298 3.0 16.0 0.00 0.02 0.00 90 1013.8
20180219084307 36 264 8.0 14.0 0.00 0.02 0.00 91 1014.0
20180219082306 37 272 2.0 14.0 0.00 0.02 0.00 89 1014.1
20180219080306 39 292 2.0 10.0 0.00 0.02 0.00 83 1014.3
20180219075306 39 287 5.0 10.0 0.00 0.02 0.02 81 1014.0
20180219074306 38 258 5.0 11.0 0.00 0.02 0.02 81 1014.1
20180219073306 39 336 0.0 11.0 0.00 0.02 0.02 81 1014.1
20180219072306 38 324 1.0 13.0 0.00 0.02 0.02 81 1014.0
20180219065306 39 340 0.0 9.0 0.00 0.02 0.02 80 1014.0
20180219062306 39 355 4.0 14.0 0.00 0.02 0.02 80 1014.0
20180219061306 39 24 5.0 12.0 0.00 0.02 0.02 79 1014.0
20180219060306 39 325 2.0 12.0 0.00 0.02 0.02 79 1014.0
20180219055306 39 289 9.0 13.0 0.00 0.02 0.02 79 1014.0
20180219054306 39 322 3.0 10.0 0.00 0.02 0.02 80 1014.0
20180219053306 39 315 9.0 9.0 0.00 0.02 0.02 80 1014.0
20180219052306 40 245 0.0 10.0 0.00 0.02 0.02 80 1013.8
20180219051306 40 215 1.0 13.0 0.00 0.02 0.02 80 1013.6
20180219045306 40 281 8.0 18.0 0.00 0.02 0.02 81 1013.5
20180219043306 40 273 4.0 14.0 0.00 0.02 0.02 83 1013.5
20180219042305 40 284 8.0 15.0 0.00 0.02 0.02 83 1013.3
20180219041306 40 277 13.0 20.0 0.00 0.02 0.02 82 1013.3
20180219040306 40 241 6.0 15.0 0.00 0.02 0.02 82 1013.3
20180219035306 40 288 4.0 16.0 0.00 0.02 0.02 82 1013.3
20180219034306 40 242 1.0 18.0 0.00 0.02 0.02 83 1013.4
20180219032305 40 283 8.0 10.0 0.00 0.02 0.02 83 1013.4
20180219031305 40 294 2.0 18.0 0.00 0.02 0.02 84 1013.3
20180219030305 40 275 8.0 9.0 0.00 0.02 0.02 84 1013.3
20180219025306 40 237 8.0 16.0 0.00 0.02 0.02 84 1013.6
20180219024305 41 267 4.0 21.0 0.00 0.02 0.02 85 1013.5
20180219023305 41 273 10.0 13.0 0.00 0.02 0.02 86 1013.5
20180219022305 41 254 10.0 17.0 0.01 0.02 0.02 87 1013.5
20180219020308 41 254 9.0 10.0 0.01 0.02 0.02 89 1013.3
20180219015305 41 308 6.0 15.0 0.02 0.02 0.02 90 1013.4
20180219014305 41 275 3.0 14.0 0.02 0.02 0.02 90 1013.6
20180219013305 42 283 6.0 11.0 0.02 0.02 0.02 91 1013.6
20180219012305 42 306 2.0 17.0 0.02 0.02 0.02 90 1013.7
20180219011305 42 286 3.0 15.0 0.01 0.01 0.01 89 1013.7
20180219010305 43 301 3.0 13.0 0.01 0.01 0.01 87 1013.7
20180219004305 45 269 3.0 14.0 0.00 0.00 0.00 78 1013.6
20180219003305 45 282 4.0 14.0 0.00 0.00 0.00 79 1013.6
20180218235305 48 267 6.0 20.0 0.00 0.00 0.00 70 1013.3
20180218234305 49 299 6.0 16.0 0.00 0.00 0.00 63 1013.4
20180218233305 49 296 5.0 11.0 0.00 0.00 0.00 65 1013.4
20180218231305 51 355 0.0 19.0 0.00 0.00 0.00 63 1013.7
20180218225305 50 311 5.0 12.0 0.00 0.00 0.00 63 1013.9
20180218223305 52 349 4.0 13.0 0.00 0.00 0.00 59 1013.7
20180218221305 51 263 5.0 21.0 0.00 0.00 0.00 60 1014.1
20180218220305 51 329 0.0 10.0 0.00 0.00 0.00 63 1014.1
20180218215305 52 200 5.0 18.0 0.00 0.00 0.00 60 1014.1
20180218212304 53 261 2.0 20.0 0.00 0.00 0.00 61 1014.2
20180218211305 52 279 3.0 17.0 0.00 0.00 0.00 63 1014.0
20180218210305 53 284 12.0 15.0 0.00 0.00 0.00 61 1014.0
20180218203305 53 184 7.0 13.0 0.00 0.00 0.00 63 1014.7
20180218200305 52 276 10.0 16.0 0.00 0.00 0.00 65 1015.0
20180218194305 51 301 1.0 16.0 0.00 0.00 0.00 68 1015.3
20180218192304 51 338 0.0 18.0 0.00 0.00 0.00 71 1015.6
20180218191304 50 264 11.0 21.0 0.00 0.00 0.00 73 1015.7
20180218190304 51 288 3.0 13.0 0.00 0.00 0.00 76 1015.7
20180218185304 51 255 6.0 13.0 0.00 0.00 0.00 81 1015.7
20180218180304 50 280 8.0 12.0 0.00 0.00 0.00 79 1015.5
20180218165304 47 255 9.0 10.0 0.00 0.00 0.00 88 1015.3
20180218164304 46 275 11.0 12.0 0.00 0.00 0.00 90 1015.2
20180218163304 46 256 3.0 9.0 0.00 0.00 0.00 91 1015.2
20180218162304 45 284 2.0 10.0 0.00 0.00 0.00 92 1015.1
20180218161304 45 313 3.0 12.0 0.00 0.00 0.00 92 1014.9
20180218160304 44 276 4.0 9.0 0.00 0.00 0.00 92 1014.9
20180218155303 44 302 10.0 12.0 0.00 0.00 0.00 93 1015.0
20180218152303 44 318 0.0 10.0 0.00 0.00 0.00 94 1015.0
20180218150304 44 288 3.0 4.0 0.00 0.00 0.00 94 1014.9
20180218142303 43 255 5.0 12.0 0.00 0.00 0.00 95 1014.6